sensor_id;sensor_type;location;lat;lon;timestamp;P1;durP1;ratioP1;P2;durP2;ratioP2
37559;SDS011;23398;50.928;7.084;2022-10-16T00:00:33;2.30;;;1.27;;
37559;SDS011;23398;50.928;7.084;2022-10-16T00:03:00;1.60;;;1.25;;
37559;SDS011;23398;50.928;7.084;2022-10-16T00:05:26;1.55;;;1.45;;
37559;SDS011;23398;50.928;7.084;2022-10-16T00:07:52;1.60;;;1.48;;
37559;SDS011;23398;50.928;7.084;2022-10-16T00:10:17;1.40;;;1.30;;
37559;SDS011;23398;50.928;7.084;2022-10-16T00:12:43;1.60;;;1.50;;
37559;SDS011;23398;50.928;7.084;2022-10-16T00:15:09;1.40;;;1.30;;
37559;SDS011;23398;50.928;7.084;2022-10-16T00:17:34;1.60;;;1.20;;
37559;SDS011;23398;50.928;7.084;2022-10-16T00:20:00;3.08;;;1.65;;
37559;SDS011;23398;50.928;7.084;2022-10-16T00:22:26;1.58;;;1.30;;
37559;SDS011;23398;50.928;7.084;2022-10-16T00:24:51;1.40;;;1.30;;
37559;SDS011;23398;50.928;7.084;2022-10-16T00:27:17;1.60;;;1.50;;
37559;SDS011;23398;50.928;7.084;2022-10-16T00:29:42;2.15;;;1.60;;
37559;SDS011;23398;50.928;7.084;2022-10-16T00:32:08;2.10;;;1.52;;
37559;SDS011;23398;50.928;7.084;2022-10-16T00:34:34;2.60;;;1.52;;
37559;SDS011;23398;50.928;7.084;2022-10-16T00:37:00;2.40;;;1.60;;
37559;SDS011;23398;50.928;7.084;2022-10-16T00:39:25;2.53;;;1.70;;
37559;SDS011;23398;50.928;7.084;2022-10-16T00:41:51;2.00;;;1.30;;
37559;SDS011;23398;50.928;7.084;2022-10-16T00:47:19;2.17;;;1.40;;
37559;SDS011;23398;50.928;7.084;2022-10-16T00:49:50;1.88;;;1.20;;
37559;SDS011;23398;50.928;7.084;2022-10-16T00:52:20;3.53;;;1.45;;
37559;SDS011;23398;50.928;7.084;2022-10-16T00:54:46;1.52;;;1.20;;
37559;SDS011;23398;50.928;7.084;2022-10-16T00:57:14;2.50;;;1.30;;
37559;SDS011;23398;50.928;7.084;2022-10-16T00:59:40;1.90;;;1.25;;
37559;SDS011;23398;50.928;7.084;2022-10-16T01:02:08;1.30;;;1.20;;
37559;SDS011;23398;50.928;7.084;2022-10-16T01:04:52;1.92;;;1.48;;
37559;SDS011;23398;50.928;7.084;2022-10-16T01:13:06;2.15;;;1.30;;
37559;SDS011;23398;50.928;7.084;2022-10-16T01:15:40;2.22;;;1.30;;
37559;SDS011;23398;50.928;7.084;2022-10-16T01:18:22;3.20;;;1.10;;
37559;SDS011;23398;50.928;7.084;2022-10-16T01:21:06;2.30;;;1.00;;
37559;SDS011;23398;50.928;7.084;2022-10-16T01:29:03;1.20;;;1.00;;
37559;SDS011;23398;50.928;7.084;2022-10-16T01:31:31;1.20;;;0.95;;
37559;SDS011;23398;50.928;7.084;2022-10-16T01:34:05;1.10;;;1.00;;
37559;SDS011;23398;50.928;7.084;2022-10-16T01:36:39;2.60;;;1.17;;
37559;SDS011;23398;50.928;7.084;2022-10-16T01:39:09;1.25;;;1.10;;
37559;SDS011;23398;50.928;7.084;2022-10-16T01:41:40;1.10;;;1.00;;
37559;SDS011;23398;50.928;7.084;2022-10-16T01:44:10;1.33;;;1.00;;
37559;SDS011;23398;50.928;7.084;2022-10-16T01:46:43;2.05;;;1.08;;
37559;SDS011;23398;50.928;7.084;2022-10-16T01:49:12;2.38;;;1.10;;
37559;SDS011;23398;50.928;7.084;2022-10-16T01:51:38;1.38;;;1.00;;
37559;SDS011;23398;50.928;7.084;2022-10-16T01:54:04;1.75;;;1.10;;
37559;SDS011;23398;50.928;7.084;2022-10-16T01:56:33;3.17;;;1.30;;
37559;SDS011;23398;50.928;7.084;2022-10-16T01:59:06;1.40;;;1.10;;
37559;SDS011;23398;50.928;7.084;2022-10-16T02:01:36;2.67;;;1.20;;
37559;SDS011;23398;50.928;7.084;2022-10-16T02:04:29;2.38;;;1.17;;
37559;SDS011;23398;50.928;7.084;2022-10-16T02:06:56;1.27;;;1.10;;
37559;SDS011;23398;50.928;7.084;2022-10-16T02:09:21;1.30;;;1.20;;
37559;SDS011;23398;50.928;7.084;2022-10-16T02:11:47;2.88;;;1.30;;
37559;SDS011;23398;50.928;7.084;2022-10-16T02:14:14;2.47;;;1.20;;
37559;SDS011;23398;50.928;7.084;2022-10-16T02:16:41;2.05;;;1.50;;
37559;SDS011;23398;50.928;7.084;2022-10-16T02:19:09;1.33;;;1.10;;
37559;SDS011;23398;50.928;7.084;2022-10-16T02:21:45;1.70;;;1.10;;
37559;SDS011;23398;50.928;7.084;2022-10-16T02:29:52;1.17;;;1.08;;
37559;SDS011;23398;50.928;7.084;2022-10-16T02:32:24;2.13;;;1.15;;
37559;SDS011;23398;50.928;7.084;2022-10-16T02:34:55;2.42;;;1.23;;
37559;SDS011;23398;50.928;7.084;2022-10-16T02:37:22;1.48;;;1.17;;
37559;SDS011;23398;50.928;7.084;2022-10-16T02:39:49;1.95;;;1.13;;
37559;SDS011;23398;50.928;7.084;2022-10-16T02:42:17;1.98;;;1.20;;
37559;SDS011;23398;50.928;7.084;2022-10-16T02:44:43;3.28;;;1.30;;
37559;SDS011;23398;50.928;7.084;2022-10-16T02:47:09;2.53;;;1.20;;
37559;SDS011;23398;50.928;7.084;2022-10-16T02:49:34;1.63;;;1.30;;
37559;SDS011;23398;50.928;7.084;2022-10-16T02:52:00;1.20;;;1.10;;
37559;SDS011;23398;50.928;7.084;2022-10-16T02:54:25;1.85;;;1.17;;
37559;SDS011;23398;50.928;7.084;2022-10-16T02:56:51;1.70;;;1.30;;
37559;SDS011;23398;50.928;7.084;2022-10-16T02:59:16;1.20;;;1.10;;
37559;SDS011;23398;50.928;7.084;2022-10-16T03:01:42;1.60;;;1.05;;
37559;SDS011;23398;50.928;7.084;2022-10-16T03:04:08;3.72;;;1.13;;
37559;SDS011;23398;50.928;7.084;2022-10-16T03:06:34;1.50;;;1.25;;
37559;SDS011;23398;50.928;7.084;2022-10-16T03:08:59;1.10;;;1.00;;
37559;SDS011;23398;50.928;7.084;2022-10-16T03:11:25;1.73;;;1.30;;
37559;SDS011;23398;50.928;7.084;2022-10-16T03:13:51;2.17;;;1.30;;
37559;SDS011;23398;50.928;7.084;2022-10-16T03:16:16;1.88;;;1.30;;
37559;SDS011;23398;50.928;7.084;2022-10-16T03:18:42;1.60;;;1.10;;
37559;SDS011;23398;50.928;7.084;2022-10-16T03:21:07;2.00;;;1.30;;
37559;SDS011;23398;50.928;7.084;2022-10-16T03:23:33;3.22;;;1.27;;
37559;SDS011;23398;50.928;7.084;2022-10-16T03:25:59;4.68;;;1.27;;
37559;SDS011;23398;50.928;7.084;2022-10-16T03:28:24;1.35;;;1.20;;
37559;SDS011;23398;50.928;7.084;2022-10-16T03:30:50;3.65;;;1.30;;
37559;SDS011;23398;50.928;7.084;2022-10-16T03:33:15;2.58;;;1.30;;
37559;SDS011;23398;50.928;7.084;2022-10-16T03:35:41;1.75;;;1.23;;
37559;SDS011;23398;50.928;7.084;2022-10-16T03:38:06;1.20;;;1.10;;
37559;SDS011;23398;50.928;7.084;2022-10-16T03:40:32;2.67;;;1.25;;
37559;SDS011;23398;50.928;7.084;2022-10-16T03:42:58;1.30;;;1.20;;
37559;SDS011;23398;50.928;7.084;2022-10-16T03:45:24;4.85;;;1.27;;
37559;SDS011;23398;50.928;7.084;2022-10-16T03:47:50;2.85;;;1.10;;
37559;SDS011;23398;50.928;7.084;2022-10-16T03:50:16;1.70;;;1.30;;
37559;SDS011;23398;50.928;7.084;2022-10-16T03:52:41;4.32;;;1.13;;
37559;SDS011;23398;50.928;7.084;2022-10-16T03:55:07;2.67;;;1.10;;
37559;SDS011;23398;50.928;7.084;2022-10-16T03:57:32;1.27;;;1.10;;
37559;SDS011;23398;50.928;7.084;2022-10-16T03:59:58;1.60;;;1.20;;
37559;SDS011;23398;50.928;7.084;2022-10-16T04:02:23;1.20;;;1.10;;
37559;SDS011;23398;50.928;7.084;2022-10-16T04:04:49;1.10;;;1.00;;
37559;SDS011;23398;50.928;7.084;2022-10-16T04:07:15;2.22;;;1.20;;
37559;SDS011;23398;50.928;7.084;2022-10-16T04:09:40;2.00;;;1.27;;
37559;SDS011;23398;50.928;7.084;2022-10-16T04:12:06;1.20;;;1.10;;
37559;SDS011;23398;50.928;7.084;2022-10-16T04:14:32;1.35;;;1.20;;
37559;SDS011;23398;50.928;7.084;2022-10-16T04:16:58;2.83;;;1.20;;
37559;SDS011;23398;50.928;7.084;2022-10-16T04:19:23;1.20;;;1.05;;
37559;SDS011;23398;50.928;7.084;2022-10-16T04:21:49;1.13;;;1.02;;
37559;SDS011;23398;50.928;7.084;2022-10-16T04:24:14;2.00;;;1.10;;
37559;SDS011;23398;50.928;7.084;2022-10-16T04:26:40;2.05;;;1.10;;
37559;SDS011;23398;50.928;7.084;2022-10-16T04:29:05;1.00;;;1.00;;
37559;SDS011;23398;50.928;7.084;2022-10-16T04:31:32;1.17;;;1.08;;
37559;SDS011;23398;50.928;7.084;2022-10-16T04:33:58;1.50;;;1.20;;
37559;SDS011;23398;50.928;7.084;2022-10-16T04:36:23;1.48;;;1.05;;
37559;SDS011;23398;50.928;7.084;2022-10-16T04:38:49;1.60;;;1.30;;
37559;SDS011;23398;50.928;7.084;2022-10-16T04:41:14;1.40;;;1.00;;
37559;SDS011;23398;50.928;7.084;2022-10-16T04:43:40;2.03;;;1.00;;
37559;SDS011;23398;50.928;7.084;2022-10-16T04:46:05;1.80;;;1.30;;
37559;SDS011;23398;50.928;7.084;2022-10-16T04:48:31;1.60;;;1.05;;
37559;SDS011;23398;50.928;7.084;2022-10-16T04:50:57;1.65;;;1.10;;
37559;SDS011;23398;50.928;7.084;2022-10-16T04:53:23;2.22;;;1.05;;
37559;SDS011;23398;50.928;7.084;2022-10-16T04:55:49;1.52;;;1.10;;
37559;SDS011;23398;50.928;7.084;2022-10-16T04:58:15;1.58;;;1.02;;
37559;SDS011;23398;50.928;7.084;2022-10-16T05:00:40;2.30;;;1.00;;
37559;SDS011;23398;50.928;7.084;2022-10-16T05:03:06;1.40;;;0.82;;
37559;SDS011;23398;50.928;7.084;2022-10-16T05:05:33;1.00;;;0.90;;
37559;SDS011;23398;50.928;7.084;2022-10-16T05:07:59;1.15;;;0.80;;
37559;SDS011;23398;50.928;7.084;2022-10-16T05:10:25;1.35;;;0.88;;
37559;SDS011;23398;50.928;7.084;2022-10-16T05:12:51;1.17;;;1.05;;
37559;SDS011;23398;50.928;7.084;2022-10-16T05:15:17;1.42;;;0.98;;
37559;SDS011;23398;50.928;7.084;2022-10-16T05:17:43;1.20;;;1.10;;
37559;SDS011;23398;50.928;7.084;2022-10-16T05:20:09;2.15;;;1.08;;
37559;SDS011;23398;50.928;7.084;2022-10-16T05:22:34;1.75;;;1.10;;
37559;SDS011;23398;50.928;7.084;2022-10-16T05:25:00;1.30;;;1.00;;
37559;SDS011;23398;50.928;7.084;2022-10-16T05:27:25;3.00;;;2.00;;
37559;SDS011;23398;50.928;7.084;2022-10-16T05:29:51;2.30;;;1.30;;
37559;SDS011;23398;50.928;7.084;2022-10-16T05:32:16;1.40;;;1.10;;
37559;SDS011;23398;50.928;7.084;2022-10-16T05:34:43;1.15;;;1.05;;
37559;SDS011;23398;50.928;7.084;2022-10-16T05:37:09;2.33;;;1.58;;
37559;SDS011;23398;50.928;7.084;2022-10-16T05:39:36;3.38;;;2.15;;
37559;SDS011;23398;50.928;7.084;2022-10-16T05:42:02;3.20;;;1.50;;
37559;SDS011;23398;50.928;7.084;2022-10-16T05:44:27;1.40;;;1.15;;
37559;SDS011;23398;50.928;7.084;2022-10-16T05:46:53;3.00;;;1.10;;
37559;SDS011;23398;50.928;7.084;2022-10-16T05:49:18;1.38;;;1.13;;
37559;SDS011;23398;50.928;7.084;2022-10-16T05:51:44;1.17;;;1.08;;
37559;SDS011;23398;50.928;7.084;2022-10-16T05:54:10;7.50;;;1.25;;
37559;SDS011;23398;50.928;7.084;2022-10-16T05:56:35;1.10;;;1.00;;
37559;SDS011;23398;50.928;7.084;2022-10-16T05:59:02;2.97;;;1.02;;
37559;SDS011;23398;50.928;7.084;2022-10-16T06:01:29;1.75;;;0.93;;
37559;SDS011;23398;50.928;7.084;2022-10-16T06:03:56;1.40;;;1.00;;
37559;SDS011;23398;50.928;7.084;2022-10-16T06:06:23;1.80;;;1.38;;
37559;SDS011;23398;50.928;7.084;2022-10-16T06:08:50;2.80;;;1.30;;
37559;SDS011;23398;50.928;7.084;2022-10-16T06:11:18;2.08;;;1.17;;
37559;SDS011;23398;50.928;7.084;2022-10-16T06:13:49;1.48;;;0.70;;
37559;SDS011;23398;50.928;7.084;2022-10-16T06:16:15;0.70;;;0.70;;
37559;SDS011;23398;50.928;7.084;2022-10-16T06:18:41;3.22;;;1.02;;
37559;SDS011;23398;50.928;7.084;2022-10-16T06:21:10;2.35;;;0.90;;
37559;SDS011;23398;50.928;7.084;2022-10-16T06:23:41;3.17;;;1.17;;
37559;SDS011;23398;50.928;7.084;2022-10-16T06:26:08;0.88;;;0.85;;
37559;SDS011;23398;50.928;7.084;2022-10-16T06:28:34;1.17;;;0.93;;
37559;SDS011;23398;50.928;7.084;2022-10-16T06:31:00;2.55;;;1.20;;
37559;SDS011;23398;50.928;7.084;2022-10-16T06:33:27;2.55;;;1.40;;
37559;SDS011;23398;50.928;7.084;2022-10-16T06:35:53;2.25;;;1.00;;
37559;SDS011;23398;50.928;7.084;2022-10-16T06:38:18;3.00;;;0.85;;
37559;SDS011;23398;50.928;7.084;2022-10-16T06:40:44;3.28;;;0.90;;
37559;SDS011;23398;50.928;7.084;2022-10-16T06:43:09;1.67;;;1.05;;
37559;SDS011;23398;50.928;7.084;2022-10-16T06:45:35;1.13;;;0.95;;
37559;SDS011;23398;50.928;7.084;2022-10-16T06:48:00;1.65;;;1.30;;
37559;SDS011;23398;50.928;7.084;2022-10-16T06:50:26;2.35;;;1.20;;
37559;SDS011;23398;50.928;7.084;2022-10-16T06:52:51;1.20;;;1.10;;
37559;SDS011;23398;50.928;7.084;2022-10-16T06:55:17;1.83;;;1.20;;
37559;SDS011;23398;50.928;7.084;2022-10-16T06:57:43;2.05;;;1.10;;
37559;SDS011;23398;50.928;7.084;2022-10-16T07:00:09;3.85;;;1.20;;
37559;SDS011;23398;50.928;7.084;2022-10-16T07:02:34;1.20;;;1.05;;
37559;SDS011;23398;50.928;7.084;2022-10-16T07:05:00;1.20;;;1.10;;
37559;SDS011;23398;50.928;7.084;2022-10-16T07:07:26;1.27;;;1.15;;
37559;SDS011;23398;50.928;7.084;2022-10-16T07:09:51;1.35;;;1.05;;
37559;SDS011;23398;50.928;7.084;2022-10-16T07:12:17;1.75;;;1.05;;
37559;SDS011;23398;50.928;7.084;2022-10-16T07:14:43;1.50;;;1.10;;
37559;SDS011;23398;50.928;7.084;2022-10-16T07:17:08;2.85;;;1.10;;
37559;SDS011;23398;50.928;7.084;2022-10-16T07:19:34;1.15;;;1.05;;
37559;SDS011;23398;50.928;7.084;2022-10-16T07:22:00;2.28;;;1.08;;
37559;SDS011;23398;50.928;7.084;2022-10-16T07:24:25;1.33;;;1.20;;
37559;SDS011;23398;50.928;7.084;2022-10-16T07:26:51;1.83;;;1.10;;
37559;SDS011;23398;50.928;7.084;2022-10-16T07:29:18;1.02;;;0.90;;
37559;SDS011;23398;50.928;7.084;2022-10-16T07:31:45;2.88;;;1.17;;
37559;SDS011;23398;50.928;7.084;2022-10-16T07:34:12;1.73;;;1.10;;
37559;SDS011;23398;50.928;7.084;2022-10-16T07:36:38;1.67;;;1.17;;
37559;SDS011;23398;50.928;7.084;2022-10-16T07:39:04;1.88;;;1.30;;
37559;SDS011;23398;50.928;7.084;2022-10-16T07:41:30;1.10;;;1.00;;
37559;SDS011;23398;50.928;7.084;2022-10-16T07:43:57;1.02;;;0.95;;
37559;SDS011;23398;50.928;7.084;2022-10-16T07:46:25;1.30;;;1.08;;
37559;SDS011;23398;50.928;7.084;2022-10-16T07:48:51;2.05;;;1.25;;
37559;SDS011;23398;50.928;7.084;2022-10-16T07:51:18;1.33;;;0.95;;
37559;SDS011;23398;50.928;7.084;2022-10-16T07:53:46;1.33;;;1.13;;
37559;SDS011;23398;50.928;7.084;2022-10-16T07:56:12;1.33;;;1.10;;
37559;SDS011;23398;50.928;7.084;2022-10-16T07:58:38;2.13;;;1.10;;
37559;SDS011;23398;50.928;7.084;2022-10-16T08:01:05;1.48;;;0.95;;
37559;SDS011;23398;50.928;7.084;2022-10-16T08:03:32;1.20;;;1.10;;
37559;SDS011;23398;50.928;7.084;2022-10-16T08:05:58;1.23;;;1.00;;
37559;SDS011;23398;50.928;7.084;2022-10-16T08:08:25;1.00;;;0.90;;
37559;SDS011;23398;50.928;7.084;2022-10-16T08:10:51;1.65;;;0.90;;
37559;SDS011;23398;50.928;7.084;2022-10-16T08:13:17;3.47;;;1.10;;
37559;SDS011;23398;50.928;7.084;2022-10-16T08:15:43;2.10;;;1.20;;
37559;SDS011;23398;50.928;7.084;2022-10-16T08:18:09;1.40;;;0.90;;
37559;SDS011;23398;50.928;7.084;2022-10-16T08:20:36;1.08;;;0.98;;
37559;SDS011;23398;50.928;7.084;2022-10-16T08:23:02;2.78;;;1.10;;
37559;SDS011;23398;50.928;7.084;2022-10-16T08:25:28;1.90;;;0.90;;
37559;SDS011;23398;50.928;7.084;2022-10-16T08:27:54;1.77;;;0.90;;
37559;SDS011;23398;50.928;7.084;2022-10-16T08:30:21;3.22;;;0.90;;
37559;SDS011;23398;50.928;7.084;2022-10-16T08:32:48;0.98;;;0.80;;
37559;SDS011;23398;50.928;7.084;2022-10-16T08:35:14;1.33;;;0.80;;
37559;SDS011;23398;50.928;7.084;2022-10-16T08:37:40;0.82;;;0.70;;
37559;SDS011;23398;50.928;7.084;2022-10-16T08:40:07;1.48;;;0.90;;
37559;SDS011;23398;50.928;7.084;2022-10-16T08:48:14;1.73;;;0.80;;
37559;SDS011;23398;50.928;7.084;2022-10-16T08:50:43;0.73;;;0.73;;
37559;SDS011;23398;50.928;7.084;2022-10-16T08:53:13;1.67;;;1.00;;
37559;SDS011;23398;50.928;7.084;2022-10-16T08:55:52;1.70;;;0.90;;
37559;SDS011;23398;50.928;7.084;2022-10-16T09:00:47;0.70;;;0.70;;
37559;SDS011;23398;50.928;7.084;2022-10-16T09:06:03;0.73;;;0.73;;
37559;SDS011;23398;50.928;7.084;2022-10-16T09:11:41;1.00;;;0.90;;
37559;SDS011;23398;50.928;7.084;2022-10-16T09:14:38;1.92;;;0.95;;
37559;SDS011;23398;50.928;7.084;2022-10-16T09:20:13;0.98;;;0.70;;
37559;SDS011;23398;50.928;7.084;2022-10-16T09:22:41;1.00;;;0.80;;
37559;SDS011;23398;50.928;7.084;2022-10-16T09:25:10;2.83;;;0.80;;
37559;SDS011;23398;50.928;7.084;2022-10-16T09:27:42;1.75;;;0.70;;
37559;SDS011;23398;50.928;7.084;2022-10-16T09:30:12;0.80;;;0.75;;
37559;SDS011;23398;50.928;7.084;2022-10-16T09:32:42;1.27;;;0.77;;
37559;SDS011;23398;50.928;7.084;2022-10-16T09:35:14;0.80;;;0.70;;
37559;SDS011;23398;50.928;7.084;2022-10-16T09:37:44;0.75;;;0.73;;
37559;SDS011;23398;50.928;7.084;2022-10-16T09:40:12;0.80;;;0.70;;
37559;SDS011;23398;50.928;7.084;2022-10-16T09:42:38;1.85;;;0.70;;
37559;SDS011;23398;50.928;7.084;2022-10-16T09:45:04;0.60;;;0.60;;
37559;SDS011;23398;50.928;7.084;2022-10-16T09:47:31;0.77;;;0.77;;
37559;SDS011;23398;50.928;7.084;2022-10-16T09:50:03;1.92;;;0.90;;
37559;SDS011;23398;50.928;7.084;2022-10-16T09:52:44;0.70;;;0.70;;
37559;SDS011;23398;50.928;7.084;2022-10-16T09:55:13;1.35;;;0.75;;
37559;SDS011;23398;50.928;7.084;2022-10-16T10:00:19;0.93;;;0.75;;
37559;SDS011;23398;50.928;7.084;2022-10-16T10:02:46;0.60;;;0.60;;
37559;SDS011;23398;50.928;7.084;2022-10-16T10:05:22;1.25;;;0.70;;
37559;SDS011;23398;50.928;7.084;2022-10-16T10:07:54;0.75;;;0.68;;
37559;SDS011;23398;50.928;7.084;2022-10-16T10:10:28;0.80;;;0.70;;
37559;SDS011;23398;50.928;7.084;2022-10-16T10:12:55;0.82;;;0.70;;
37559;SDS011;23398;50.928;7.084;2022-10-16T10:15:21;2.47;;;0.90;;
37559;SDS011;23398;50.928;7.084;2022-10-16T10:17:53;0.63;;;0.60;;
37559;SDS011;23398;50.928;7.084;2022-10-16T10:20:27;1.48;;;0.65;;
37559;SDS011;23398;50.928;7.084;2022-10-16T10:22:55;0.50;;;0.50;;
37559;SDS011;23398;50.928;7.084;2022-10-16T10:28:26;0.70;;;0.65;;
37559;SDS011;23398;50.928;7.084;2022-10-16T10:31:06;0.60;;;0.60;;
37559;SDS011;23398;50.928;7.084;2022-10-16T10:34:08;1.77;;;0.70;;
37559;SDS011;23398;50.928;7.084;2022-10-16T10:36:56;0.73;;;0.50;;
37559;SDS011;23398;50.928;7.084;2022-10-16T10:39:39;0.70;;;0.70;;
37559;SDS011;23398;50.928;7.084;2022-10-16T10:42:15;1.00;;;0.68;;
37559;SDS011;23398;50.928;7.084;2022-10-16T10:44:55;1.95;;;0.70;;
37559;SDS011;23398;50.928;7.084;2022-10-16T10:50:25;0.85;;;0.63;;
37559;SDS011;23398;50.928;7.084;2022-10-16T10:56:03;0.80;;;0.80;;
37559;SDS011;23398;50.928;7.084;2022-10-16T11:01:17;1.88;;;0.70;;
37559;SDS011;23398;50.928;7.084;2022-10-16T11:06:29;1.45;;;0.65;;
37559;SDS011;23398;50.928;7.084;2022-10-16T11:11:46;1.30;;;0.98;;
37559;SDS011;23398;50.928;7.084;2022-10-16T11:14:29;0.63;;;0.63;;
37559;SDS011;23398;50.928;7.084;2022-10-16T11:22:53;0.55;;;0.52;;
37559;SDS011;23398;50.928;7.084;2022-10-16T11:25:22;0.88;;;0.52;;
37559;SDS011;23398;50.928;7.084;2022-10-16T11:27:53;0.85;;;0.68;;
37559;SDS011;23398;50.928;7.084;2022-10-16T11:30:27;0.73;;;0.63;;
37559;SDS011;23398;50.928;7.084;2022-10-16T11:35:37;0.95;;;0.80;;
37559;SDS011;23398;50.928;7.084;2022-10-16T11:38:10;3.70;;;2.53;;
37559;SDS011;23398;50.928;7.084;2022-10-16T11:40:53;1.20;;;1.00;;
37559;SDS011;23398;50.928;7.084;2022-10-16T11:46:39;0.50;;;0.50;;
37559;SDS011;23398;50.928;7.084;2022-10-16T11:49:15;2.13;;;0.60;;
37559;SDS011;23398;50.928;7.084;2022-10-16T11:51:53;1.30;;;0.60;;
37559;SDS011;23398;50.928;7.084;2022-10-16T11:54:46;1.85;;;0.68;;
37559;SDS011;23398;50.928;7.084;2022-10-16T11:57:48;0.63;;;0.60;;
37559;SDS011;23398;50.928;7.084;2022-10-16T12:00:21;0.82;;;0.70;;
37559;SDS011;23398;50.928;7.084;2022-10-16T12:02:59;1.67;;;0.57;;
37559;SDS011;23398;50.928;7.084;2022-10-16T12:05:52;0.88;;;0.52;;
37559;SDS011;23398;50.928;7.084;2022-10-16T12:08:30;1.60;;;0.68;;
37559;SDS011;23398;50.928;7.084;2022-10-16T12:13:48;1.52;;;0.47;;
37559;SDS011;23398;50.928;7.084;2022-10-16T12:18:40;0.50;;;0.50;;
37559;SDS011;23398;50.928;7.084;2022-10-16T12:21:10;1.10;;;0.52;;
37559;SDS011;23398;50.928;7.084;2022-10-16T12:23:47;1.00;;;0.60;;
37559;SDS011;23398;50.928;7.084;2022-10-16T12:26:15;1.13;;;0.80;;
37559;SDS011;23398;50.928;7.084;2022-10-16T12:28:53;1.25;;;0.90;;
37559;SDS011;23398;50.928;7.084;2022-10-16T12:31:20;2.50;;;2.05;;
37559;SDS011;23398;50.928;7.084;2022-10-16T12:33:59;1.23;;;0.90;;
37559;SDS011;23398;50.928;7.084;2022-10-16T12:36:29;0.70;;;0.70;;
37559;SDS011;23398;50.928;7.084;2022-10-16T12:38:57;1.10;;;0.70;;
37559;SDS011;23398;50.928;7.084;2022-10-16T12:41:29;1.48;;;0.90;;
37559;SDS011;23398;50.928;7.084;2022-10-16T12:43:56;1.00;;;0.70;;
37559;SDS011;23398;50.928;7.084;2022-10-16T12:51:39;1.00;;;0.60;;
37559;SDS011;23398;50.928;7.084;2022-10-16T13:13:35;0.73;;;0.73;;
37559;SDS011;23398;50.928;7.084;2022-10-16T13:21:19;0.55;;;0.50;;
37559;SDS011;23398;50.928;7.084;2022-10-16T13:29:14;0.75;;;0.63;;
37559;SDS011;23398;50.928;7.084;2022-10-16T13:31:40;1.70;;;0.52;;
37559;SDS011;23398;50.928;7.084;2022-10-16T13:34:10;0.55;;;0.47;;
37559;SDS011;23398;50.928;7.084;2022-10-16T13:36:48;1.10;;;0.63;;
37559;SDS011;23398;50.928;7.084;2022-10-16T13:39:20;2.83;;;0.65;;
37559;SDS011;23398;50.928;7.084;2022-10-16T13:42:11;1.05;;;0.70;;
37559;SDS011;23398;50.928;7.084;2022-10-16T13:44:43;0.75;;;0.60;;
37559;SDS011;23398;50.928;7.084;2022-10-16T13:47:16;1.02;;;0.63;;
37559;SDS011;23398;50.928;7.084;2022-10-16T13:49:43;1.80;;;0.82;;
37559;SDS011;23398;50.928;7.084;2022-10-16T13:52:19;0.95;;;0.50;;
37559;SDS011;23398;50.928;7.084;2022-10-16T13:54:45;0.90;;;0.55;;
37559;SDS011;23398;50.928;7.084;2022-10-16T13:57:13;0.80;;;0.65;;
37559;SDS011;23398;50.928;7.084;2022-10-16T13:59:39;1.38;;;0.60;;
37559;SDS011;23398;50.928;7.084;2022-10-16T14:02:24;1.87;;;0.80;;
37559;SDS011;23398;50.928;7.084;2022-10-16T14:04:59;0.70;;;0.65;;
37559;SDS011;23398;50.928;7.084;2022-10-16T14:07:28;0.60;;;0.60;;
37559;SDS011;23398;50.928;7.084;2022-10-16T14:09:56;1.02;;;0.50;;
37559;SDS011;23398;50.928;7.084;2022-10-16T14:12:43;0.50;;;0.50;;
37559;SDS011;23398;50.928;7.084;2022-10-16T14:15:15;1.58;;;0.57;;
37559;SDS011;23398;50.928;7.084;2022-10-16T14:17:43;1.00;;;0.50;;
37559;SDS011;23398;50.928;7.084;2022-10-16T14:20:15;0.70;;;0.52;;
37559;SDS011;23398;50.928;7.084;2022-10-16T14:22:41;0.65;;;0.63;;
37559;SDS011;23398;50.928;7.084;2022-10-16T14:27:45;0.75;;;0.50;;
37559;SDS011;23398;50.928;7.084;2022-10-16T14:30:25;0.50;;;0.50;;
37559;SDS011;23398;50.928;7.084;2022-10-16T14:32:55;1.15;;;0.60;;
37559;SDS011;23398;50.928;7.084;2022-10-16T14:35:27;0.80;;;0.55;;
37559;SDS011;23398;50.928;7.084;2022-10-16T14:38:04;0.73;;;0.60;;
37559;SDS011;23398;50.928;7.084;2022-10-16T14:40:32;0.77;;;0.70;;
37559;SDS011;23398;50.928;7.084;2022-10-16T14:43:00;0.60;;;0.60;;
37559;SDS011;23398;50.928;7.084;2022-10-16T14:45:28;0.98;;;0.70;;
37559;SDS011;23398;50.928;7.084;2022-10-16T14:47:57;1.15;;;0.80;;
37559;SDS011;23398;50.928;7.084;2022-10-16T14:50:38;0.77;;;0.63;;
37559;SDS011;23398;50.928;7.084;2022-10-16T14:53:08;0.70;;;0.70;;
37559;SDS011;23398;50.928;7.084;2022-10-16T14:55:37;1.35;;;0.80;;
37559;SDS011;23398;50.928;7.084;2022-10-16T14:58:04;0.80;;;0.60;;
37559;SDS011;23398;50.928;7.084;2022-10-16T15:00:29;1.75;;;0.80;;
37559;SDS011;23398;50.928;7.084;2022-10-16T15:02:55;0.68;;;0.68;;
37559;SDS011;23398;50.928;7.084;2022-10-16T15:07:48;2.10;;;0.80;;
37559;SDS011;23398;50.928;7.084;2022-10-16T15:10:15;1.45;;;0.80;;
37559;SDS011;23398;50.928;7.084;2022-10-16T15:12:45;2.30;;;0.80;;
37559;SDS011;23398;50.928;7.084;2022-10-16T15:17:54;1.00;;;0.80;;
37559;SDS011;23398;50.928;7.084;2022-10-16T15:20:25;1.15;;;0.60;;
37559;SDS011;23398;50.928;7.084;2022-10-16T15:22:55;0.60;;;0.60;;
37559;SDS011;23398;50.928;7.084;2022-10-16T15:27:53;1.05;;;0.70;;
37559;SDS011;23398;50.928;7.084;2022-10-16T15:30:18;1.10;;;0.85;;
37559;SDS011;23398;50.928;7.084;2022-10-16T15:32:44;0.95;;;0.80;;
37559;SDS011;23398;50.928;7.084;2022-10-16T15:35:09;0.93;;;0.80;;
37559;SDS011;23398;50.928;7.084;2022-10-16T15:37:35;1.25;;;0.98;;
37559;SDS011;23398;50.928;7.084;2022-10-16T15:40:00;2.13;;;0.80;;
37559;SDS011;23398;50.928;7.084;2022-10-16T15:42:26;0.82;;;0.80;;
37559;SDS011;23398;50.928;7.084;2022-10-16T15:44:51;1.85;;;0.95;;
37559;SDS011;23398;50.928;7.084;2022-10-16T15:47:17;1.73;;;1.10;;
37559;SDS011;23398;50.928;7.084;2022-10-16T15:49:42;2.45;;;1.20;;
37559;SDS011;23398;50.928;7.084;2022-10-16T15:52:08;2.38;;;1.05;;
37559;SDS011;23398;50.928;7.084;2022-10-16T15:54:33;1.38;;;1.00;;
37559;SDS011;23398;50.928;7.084;2022-10-16T15:56:59;3.33;;;1.00;;
37559;SDS011;23398;50.928;7.084;2022-10-16T15:59:24;0.82;;;0.80;;
37559;SDS011;23398;50.928;7.084;2022-10-16T16:01:50;0.88;;;0.73;;
37559;SDS011;23398;50.928;7.084;2022-10-16T16:04:15;0.70;;;0.70;;
37559;SDS011;23398;50.928;7.084;2022-10-16T16:06:41;2.03;;;0.80;;
37559;SDS011;23398;50.928;7.084;2022-10-16T16:09:10;1.08;;;0.80;;
37559;SDS011;23398;50.928;7.084;2022-10-16T16:11:36;4.25;;;0.82;;
37559;SDS011;23398;50.928;7.084;2022-10-16T16:14:03;1.20;;;0.80;;
37559;SDS011;23398;50.928;7.084;2022-10-16T16:16:30;1.38;;;0.80;;
37559;SDS011;23398;50.928;7.084;2022-10-16T16:18:56;1.70;;;0.80;;
37559;SDS011;23398;50.928;7.084;2022-10-16T16:21:22;1.45;;;0.80;;
37559;SDS011;23398;50.928;7.084;2022-10-16T16:23:48;0.88;;;0.70;;
37559;SDS011;23398;50.928;7.084;2022-10-16T16:26:14;3.05;;;1.00;;
37559;SDS011;23398;50.928;7.084;2022-10-16T16:28:48;1.83;;;0.80;;
37559;SDS011;23398;50.928;7.084;2022-10-16T16:31:14;1.02;;;0.80;;
37559;SDS011;23398;50.928;7.084;2022-10-16T16:33:40;1.25;;;0.90;;
37559;SDS011;23398;50.928;7.084;2022-10-16T16:36:05;1.00;;;0.90;;
37559;SDS011;23398;50.928;7.084;2022-10-16T16:38:32;1.48;;;0.85;;
37559;SDS011;23398;50.928;7.084;2022-10-16T16:40:58;1.73;;;0.93;;
37559;SDS011;23398;50.928;7.084;2022-10-16T16:43:24;0.98;;;0.82;;
37559;SDS011;23398;50.928;7.084;2022-10-16T16:45:51;1.23;;;0.80;;
37559;SDS011;23398;50.928;7.084;2022-10-16T16:48:17;1.17;;;0.93;;
37559;SDS011;23398;50.928;7.084;2022-10-16T16:50:43;1.50;;;0.80;;
37559;SDS011;23398;50.928;7.084;2022-10-16T16:53:08;1.13;;;0.80;;
37559;SDS011;23398;50.928;7.084;2022-10-16T16:55:34;0.73;;;0.70;;